Ride Results

Blackbutt (31-01-2015)
Ride distance: 80.0 km

Outcomes - Blackbutt (31-01-2015)
Division No. of Entries Retired / DNE Completed Withdrawn Ineligible V/O Percentage Completed
HW 8 - 7 - - 1 87.50%
MW 11 - 10 1 - - 90.91%
LW 8 - 8 - - - 100.00%
JN 8 - 6 1 - 1 75.00%
Totals 35 - 31 2 - 2 88.57%
Results - Blackbutt (31-01-2015)
No. Rider Horse Place Time Leg Speeds Total
Km/Hr
H/R bpm
Heavyweight
205 Kathryn Priol Kalkadoon Lucifer 1 (BC) 5:52:00 14.5, 12.6, 13.9 13.64 38, 39, 42, 49 (Avg:43)
233 Mark Nimon Manana Amigo 2 6:43:00 12.5, 12.6, 10.1 11.91 42, 51, 49, 51 (Avg:50)
202 Troy Butler Roxborough Rivulet 3 7:27:00 11.2, 10.2, 10.7 10.74 38, 39, 42, 42 (Avg:41)
227 Greg Lyon Chingford Ashkalani 4 7:29:00 11.6, 10.0, 10.3 10.69 41, 30, 44, 56 (Avg:43)
212 Dick Collyer Meea 5 7:43:00 12.0, 10.4, 8.5 10.37 39, 50, 50, 45 (Avg:48)
237 Matthias Lochthofen Honey 6 7:45:00 11.2, 9.3, 10.7 10.32 38, 49, 51, 52 (Avg:50)
229 Chris Nichols Bashan Memphis 6 7:45:00 11.2, 9.2, 10.8 10.32 40, 45, 41, 46 (Avg:44)
221 Sam Marquis Talika Natashi Heart Rate L1 2:47:00 10.7 10.78 42, 60 (Avg:60)
Middleweight
214 Narelle Childs Halo Kazaam 1 5:50:00 13.9, 13.2, 14.1 13.71 39, 52, 45, 48 (Avg:48)
235 Simone Krahnen Ardai 1 (BC) 5:50:00 14.4, 12.7, 14.2 13.71 43, 46, 48, 46 (Avg:46)
215 Karen Winkel Glenewan Spring 3 6:02:00 14.4, 12.4, 12.9 13.26 42, 54, 48, 48 (Avg:50)
201 Cora Becker Shantih Lodge Shazaam 4 6:12:00 12.7, 12.9, 13.0 12.90 48, 43, 48, 47 (Avg:46)
203 Steve Gray Longrun Mikami 5 7:27:00 11.2, 10.2, 10.7 10.74 32, 45, 45, 50 (Avg:46)
224 Michael Combe Nasr 6 7:29:00 11.6, 10.1, 10.3 10.69 37, 51, 49, 42 (Avg:47)
213 Lizzy Cleland Lasca's Lotus 7 7:43:00 11.9, 10.4, 8.5 10.37 47, 46, 52, 53 (Avg:50)
222 Ruth White Cameo Gryffindor 8 7:44:00 10.8, 10.5, 9.3 10.34 48, 54, 55, 58 (Avg:55)
230 Debbie Edwards Bashan Phoenix 9 7:45:00 11.2, 9.2, 10.8 10.32 32, 38, 40, 37 (Avg:38)
210 Jacinta Stubbings Cameo Pygmalion 10 8:05:00 10.7, 8.9, 10.2 9.90 37, 48, 48, 50 (Avg:48)
204 Julie Mohi Arabiana Banama Widthdrawn L2 6:43:00 - 8.93 45, 51, 47 (Avg:49)
Lightweight
211 Alyce Capek Gums Kawielie 1 (BC) 5:12:00 15.9, 14.9, 15.1 15.38 36, 55, 48, 48 (Avg:50)
236 Colleen Krahnen Kalkadoon Shalom 2 5:50:00 14.4, 12.7, 14.2 13.71 37, 44, 46, 51 (Avg:47)
223 Janelle Taylor Calico Jarkamarn 3 6:02:00 14.4, 12.4, 12.9 13.26 39, 46, 39, 42 (Avg:42)
209 Victoria Clarke Hideaway Farm Pacific-Power 4 6:11:00 12.9, 12.7, 13.1 12.94 34, 44, 44, 46 (Avg:44)
216 Mindy Davies Shemesh El Miraj 5 6:43:00 12.4, 12.8, 10.1 11.91 37, 42, 45, 45 (Avg:44)
207 Jocelyn Barnes Trinity 6 7:07:00 11.2, 11.5, 10.8 11.24 37, 43, 45, 47 (Avg:45)
220 Jan Tyrrell Steel Poppy Springbrock 7 7:44:00 10.8, 10.5, 9.3 10.34 43, 42, 47, 52 (Avg:47)
232 Lisa Stibbe Melcot Netasha 8 8:00:00 11.7, 10.4, 7.7 10.00 35, 44, 42, 46 (Avg:44)
Junior
206 Ellie Kreicbergs-Prenzler Kholonial Frontier 1 (BC) 5:52:00 14.5, 12.6, 13.9 13.64 39, 46, 46, 47 (Avg:46)
217 Thomas Reay Splitters Creek Watch the Tempo 2 7:29:00 11.6, 10.1, 10.3 10.69 34, 48, 46, 47 (Avg:47)
231 Mel Simpson Bashan Tahpenes 3 7:45:00 11.2, 9.2, 10.8 10.32 38, 45, 44, 47 (Avg:45)
234 Christina Simpson Agape Evezra 3 7:45:00 11.1, 9.3, 10.8 10.32 39, 43, 44, 48 (Avg:45)
218 Tahlia Franke Rhondarosa's Sharr 5 8:01:00 8.6, 10.1, 12.3 9.98 37, 53, 46, 46 (Avg:48)
219 Ronan McKay Pterion Mulan 5 8:01:00 8.6, 10.1, 12.3 9.98 42, 39, 43, 47 (Avg:43)
228 Lili-Rose Kake Phoenix Widthdrawn L2 7:10:00 - 8.37 47, 53, 53 (Avg:53)
208 Jasmine Perrier Faris Zyrtec Lame L1 2:19:00 12.9 12.95 41, 45 (Avg:45)